createdAt,value
2022-11-29T00:01:12.952Z,98341.77
2022-11-29T00:03:40.819Z,98345.20
2022-11-29T00:06:11.251Z,98345.73
2022-11-29T00:08:39.530Z,98343.34
2022-11-29T00:11:12.412Z,98344.89
2022-11-29T00:13:40.444Z,98341.15
2022-11-29T00:16:09.927Z,98340.31
2022-11-29T00:18:37.853Z,98343.40
2022-11-29T00:21:06.547Z,98340.33
2022-11-29T00:23:34.926Z,98335.55
2022-11-29T00:26:06.675Z,98334.87
2022-11-29T00:28:35.463Z,98332.33
2022-11-29T00:31:21.665Z,98332.01
2022-11-29T00:33:50.048Z,98333.54
2022-11-29T00:36:18.017Z,98329.45
2022-11-29T00:38:45.985Z,98324.85
2022-11-29T00:41:14.255Z,98326.38
2022-11-29T00:43:42.089Z,98326.73
2022-11-29T00:46:11.745Z,98325.55
2022-11-29T00:48:39.653Z,98333.06
2022-11-29T00:51:07.984Z,98333.92
2022-11-29T00:53:36.463Z,98330.00
2022-11-29T00:56:05.015Z,98326.08
2022-11-29T00:58:33.630Z,98323.70
2022-11-29T01:01:01.531Z,98323.20
2022-11-29T01:03:29.467Z,98325.77
2022-11-29T01:06:01.329Z,98326.10
2022-11-29T01:08:29.301Z,98326.45
2022-11-29T01:11:12.215Z,98328.00
2022-11-29T01:13:40.491Z,98324.59
2022-11-29T01:16:08.874Z,98326.80
2022-11-29T01:18:37.353Z,98327.33
2022-11-29T01:21:10.235Z,98324.58
2022-11-29T01:23:38.483Z,98324.58
2022-11-29T01:26:08.128Z,98322.52
2022-11-29T01:28:37.111Z,98322.88
2022-11-29T01:31:08.784Z,98324.55
2022-11-29T01:33:37.045Z,98326.59
2022-11-29T01:36:05.940Z,98326.60
2022-11-29T01:38:34.109Z,98320.11
2022-11-29T01:41:04.742Z,98317.21
2022-11-29T01:43:33.436Z,98316.36
2022-11-29T01:46:01.317Z,98315.33
2022-11-29T01:48:31.215Z,98311.23
2022-11-29T01:51:00.925Z,98310.03
2022-11-29T01:53:28.997Z,98309.52
2022-11-29T01:56:01.286Z,98307.64
2022-11-29T01:58:29.352Z,98311.23
2022-11-29T02:00:58.315Z,98313.11
2022-11-29T02:03:26.610Z,98312.91
2022-11-29T02:05:55.193Z,98311.72
2022-11-29T02:08:29.921Z,98313.77
2022-11-29T02:11:18.061Z,98318.23
2022-11-29T02:13:59.240Z,98318.57
2022-11-29T02:16:45.741Z,98319.93
2022-11-29T02:19:22.728Z,98318.07
2022-11-29T02:21:58.171Z,98321.66
2022-11-29T02:24:47.283Z,98319.63
2022-11-29T02:27:15.511Z,98321.02
2022-11-29T02:30:02.221Z,98321.71
2022-11-29T02:32:42.375Z,98318.81
2022-11-29T02:35:19.459Z,98323.77
2022-11-29T02:38:22.656Z,98323.78
2022-11-29T02:40:53.390Z,98322.41
2022-11-29T02:43:36.613Z,98323.44
2022-11-29T02:46:04.621Z,98331.97
2022-11-29T02:48:55.898Z,98335.04
2022-11-29T02:51:32.658Z,98336.23
2022-11-29T02:54:06.756Z,98333.16
2022-11-29T02:56:37.472Z,98334.52
2022-11-29T02:59:09.695Z,98337.92
2022-11-29T03:01:55.821Z,98338.43
2022-11-29T03:04:42.622Z,98341.67
2022-11-29T03:07:15.625Z,98343.88
2022-11-29T03:09:50.046Z,98339.27
2022-11-29T03:12:17.818Z,98337.89
2022-11-29T03:14:48.504Z,98337.73
2022-11-29T03:17:19.561Z,98335.34
2022-11-29T03:19:59.699Z,98330.90
2022-11-29T03:22:36.781Z,98328.52
2022-11-29T03:25:05.165Z,98334.98
2022-11-29T03:27:44.277Z,98333.61
2022-11-29T03:30:13.926Z,98335.15
2022-11-29T03:32:50.870Z,98332.08
2022-11-29T03:35:22.234Z,98338.55
2022-11-29T03:38:08.740Z,98341.79
2022-11-29T03:40:56.473Z,98348.42
2022-11-29T03:43:30.665Z,98346.38
2022-11-29T03:46:01.025Z,98343.33
2022-11-29T03:48:37.885Z,98340.77
2022-11-29T03:51:08.728Z,98344.00
2022-11-29T03:53:45.190Z,98348.45
2022-11-29T03:56:36.264Z,98348.44
2022-11-29T03:59:20.048Z,98346.23
2022-11-29T04:02:08.292Z,98353.20
2022-11-29T04:04:48.341Z,98352.69
2022-11-29T04:07:28.742Z,98354.57
2022-11-29T04:10:15.005Z,98354.05
2022-11-29T04:13:04.067Z,98352.86
2022-11-29T04:15:44.383Z,98352.52
2022-11-29T04:18:23.968Z,98353.52
2022-11-29T04:20:51.853Z,98356.41
2022-11-29T04:23:23.083Z,98357.09
2022-11-29T04:26:06.305Z,98357.41
2022-11-29T04:28:49.225Z,98358.77
2022-11-29T04:31:37.218Z,98359.60
2022-11-29T04:34:17.114Z,98361.63
2022-11-29T04:36:47.752Z,98364.52
2022-11-29T04:39:34.253Z,98367.06
2022-11-29T04:42:08.259Z,98369.43
2022-11-29T04:44:36.130Z,98367.20
2022-11-29T04:47:04.101Z,98363.96
2022-11-29T04:49:44.353Z,98364.98
2022-11-29T04:52:15.088Z,98368.23
2022-11-29T04:54:51.871Z,98366.34
2022-11-29T04:57:27.512Z,98369.07
2022-11-29T05:00:07.153Z,98369.56
2022-11-29T05:02:55.786Z,98370.23
2022-11-29T05:05:26.782Z,98371.44
2022-11-29T05:08:13.668Z,98369.41
2022-11-29T05:10:44.603Z,98372.98
2022-11-29T05:13:31.214Z,98372.16
2022-11-29T05:16:05.356Z,98376.27
2022-11-29T05:18:36.367Z,98379.33
2022-11-29T05:21:16.811Z,98377.81
2022-11-29T05:23:53.602Z,98379.01
2022-11-29T05:26:33.968Z,98380.22
2022-11-29T05:29:05.315Z,98381.44
2022-11-29T05:31:33.209Z,98385.39
2022-11-29T05:34:03.926Z,98384.20
2022-11-29T05:36:31.886Z,98383.02
2022-11-29T05:39:08.963Z,98385.59
2022-11-29T05:41:46.663Z,98388.66
2022-11-29T05:44:23.783Z,98388.16
2022-11-29T05:46:57.147Z,98390.55
2022-11-29T05:49:43.748Z,98393.12
2022-11-29T05:52:11.536Z,98396.20
2022-11-29T05:54:48.807Z,98396.19
2022-11-29T05:57:39.914Z,98399.77
2022-11-29T06:00:11.058Z,98400.61
2022-11-29T06:02:41.653Z,98400.79
2022-11-29T06:05:13.681Z,98405.21
2022-11-29T06:07:45.373Z,98405.40
2022-11-29T06:10:21.151Z,98404.22
2022-11-29T06:12:58.145Z,98409.00
2022-11-29T06:15:50.741Z,98406.63
2022-11-29T06:18:37.293Z,98410.38
2022-11-29T06:21:05.164Z,98412.77
2022-11-29T06:23:39.275Z,98414.15
2022-11-29T06:26:10.015Z,98410.58
2022-11-29T06:28:57.562Z,98410.24
2022-11-29T06:31:32.109Z,98405.97
2022-11-29T06:34:03.103Z,98408.19
2022-11-29T06:36:43.051Z,98410.23
2022-11-29T06:39:11.233Z,98405.80
2022-11-29T06:41:39.200Z,98410.06
2022-11-29T06:44:07.371Z,98416.37
2022-11-29T06:46:44.997Z,98414.16
2022-11-29T06:49:33.215Z,98412.80
2022-11-29T06:52:07.425Z,98420.64
2022-11-29T06:54:35.160Z,98424.73
2022-11-29T06:57:08.799Z,98423.36
2022-11-29T06:59:36.666Z,98416.90
2022-11-29T07:02:04.682Z,98416.56
2022-11-29T07:04:45.896Z,98414.86
2022-11-29T07:07:18.696Z,98414.17
2022-11-29T07:09:49.441Z,98412.10
2022-11-29T07:12:18.016Z,98413.13
2022-11-29T07:14:46.561Z,98412.77
2022-11-29T07:17:30.053Z,98413.42
2022-11-29T07:19:58.070Z,98412.50
2022-11-29T07:22:35.750Z,98410.62
2022-11-29T07:25:12.353Z,98407.48
2022-11-29T07:27:52.522Z,98405.45
2022-11-29T07:30:21.824Z,98405.23
2022-11-29T07:33:04.541Z,98405.29
2022-11-29T07:35:32.409Z,98399.33
2022-11-29T07:38:10.300Z,98397.77
2022-11-29T07:40:50.464Z,98397.15
2022-11-29T07:43:27.959Z,98394.30
2022-11-29T07:45:57.282Z,98397.87
2022-11-29T07:48:25.326Z,98404.63
2022-11-29T07:50:54.413Z,98403.69
2022-11-29T07:53:23.112Z,98399.95
2022-11-29T07:55:51.592Z,98393.63
2022-11-29T07:58:19.720Z,98396.67
2022-11-29T08:00:47.707Z,98397.06
2022-11-29T08:03:15.706Z,98393.36
2022-11-29T08:05:45.677Z,98392.68
2022-11-29T08:08:13.908Z,98386.51
2022-11-29T08:10:41.975Z,98385.47
2022-11-29T08:13:09.882Z,98382.56
2022-11-29T08:15:43.340Z,98375.60
2022-11-29T08:18:11.306Z,98374.90
2022-11-29T08:20:41.328Z,98373.66
2022-11-29T08:23:10.858Z,98374.98
2022-11-29T08:25:38.853Z,98374.54
2022-11-29T08:28:06.866Z,98375.05
2022-11-29T08:30:34.948Z,98367.86
2022-11-29T08:33:02.810Z,98366.67
2022-11-29T08:35:31.186Z,98368.98
2022-11-29T08:37:59.088Z,98370.63
2022-11-29T08:40:27.024Z,98371.45
2022-11-29T08:42:57.557Z,98368.55
2022-11-29T08:45:25.560Z,98364.09
2022-11-29T08:47:53.496Z,98358.80
2022-11-29T08:50:21.670Z,98356.94
2022-11-29T08:53:08.483Z,98345.86
2022-11-29T08:55:42.949Z,98346.84
2022-11-29T08:58:13.024Z,98342.84
2022-11-29T09:00:41.557Z,98338.53
2022-11-29T09:03:28.321Z,98336.33
2022-11-29T09:05:57.739Z,98336.98
2022-11-29T09:08:25.680Z,98332.13
2022-11-29T09:10:53.549Z,98332.17
2022-11-29T09:13:21.405Z,98329.11
2022-11-29T09:15:49.488Z,98327.01
2022-11-29T09:18:17.459Z,98320.33
2022-11-29T09:20:45.430Z,98317.52
2022-11-29T09:23:13.598Z,98315.05
2022-11-29T09:25:41.470Z,98313.60
2022-11-29T09:28:09.544Z,98309.11
2022-11-29T09:30:38.288Z,98304.18
2022-11-29T09:33:06.308Z,98300.00
2022-11-29T09:35:34.905Z,98298.61
2022-11-29T09:38:02.855Z,98293.20
2022-11-29T09:40:39.013Z,98296.36
2022-11-29T09:43:15.276Z,98292.94
2022-11-29T09:45:46.670Z,98289.67
2022-11-29T09:48:29.384Z,98287.45
2022-11-29T09:51:17.631Z,98284.70
2022-11-29T09:54:00.202Z,98284.42
2022-11-29T09:56:32.165Z,98281.25
2022-11-29T09:59:02.716Z,98285.53
2022-11-29T10:01:37.738Z,98287.79
2022-11-29T10:04:09.668Z,98289.04
2022-11-29T10:06:43.399Z,98286.42
2022-11-29T10:09:22.633Z,98286.58
2022-11-29T10:12:02.785Z,98289.45
2022-11-29T10:14:46.615Z,98287.19
2022-11-29T10:17:14.706Z,98285.11
2022-11-29T10:19:46.148Z,98284.92
2022-11-29T10:22:25.970Z,98282.59
2022-11-29T10:24:57.582Z,98282.81
2022-11-29T10:27:29.722Z,98284.41
2022-11-29T10:30:01.068Z,98282.30
2022-11-29T10:32:32.004Z,98278.85
2022-11-29T10:35:01.731Z,98275.45
2022-11-29T10:37:32.885Z,98272.77
2022-11-29T10:40:04.391Z,98271.45
2022-11-29T10:42:53.282Z,98269.90
2022-11-29T10:45:34.058Z,98270.91
2022-11-29T10:48:03.545Z,98262.53
2022-11-29T10:50:33.766Z,98259.94
2022-11-29T10:53:06.633Z,98255.35
2022-11-29T10:55:45.781Z,98253.11
2022-11-29T10:58:22.108Z,98251.38
2022-11-29T11:00:59.599Z,98252.69
2022-11-29T11:03:30.792Z,98251.45
2022-11-29T11:06:01.531Z,98249.28
2022-11-29T11:08:30.820Z,98243.92
2022-11-29T11:11:01.760Z,98244.74
2022-11-29T11:13:31.427Z,98245.67
2022-11-29T11:15:59.336Z,98236.20
2022-11-29T11:18:29.308Z,98234.14
2022-11-29T11:20:58.659Z,98235.97
2022-11-29T11:23:29.184Z,98233.95
2022-11-29T11:26:05.242Z,98235.15
2022-11-29T11:28:33.077Z,98235.35
2022-11-29T11:31:06.037Z,98239.39
2022-11-29T11:33:44.001Z,98231.77
2022-11-29T11:36:21.291Z,98233.20
2022-11-29T11:38:51.924Z,98229.68
2022-11-29T11:41:22.242Z,98229.96
2022-11-29T11:43:55.440Z,98227.77
2022-11-29T11:46:23.943Z,98229.05
2022-11-29T11:48:51.989Z,98228.96
2022-11-29T11:51:25.390Z,98225.88
2022-11-29T11:53:56.534Z,98225.85
2022-11-29T11:56:25.323Z,98225.96
2022-11-29T11:58:54.723Z,98225.60
2022-11-29T12:01:30.881Z,98227.18
2022-11-29T12:04:02.077Z,98224.96
2022-11-29T12:06:38.926Z,98223.05
2022-11-29T12:09:10.298Z,98221.54
2022-11-29T12:11:46.340Z,98217.23
2022-11-29T12:14:24.220Z,98216.71
2022-11-29T12:16:55.718Z,98212.08
2022-11-29T12:19:26.807Z,98212.52
2022-11-29T12:21:59.904Z,98214.27
2022-11-29T12:24:31.719Z,98217.11
2022-11-29T12:27:03.699Z,98212.95
2022-11-29T12:29:35.274Z,98210.50
2022-11-29T12:32:06.010Z,98207.81
2022-11-29T12:34:49.301Z,98205.02
2022-11-29T12:37:38.505Z,98198.77
2022-11-29T12:40:18.484Z,98196.70
2022-11-29T12:42:46.433Z,98194.59
2022-11-29T12:45:24.027Z,98194.95
2022-11-29T12:48:10.429Z,98194.14
2022-11-29T12:50:44.338Z,98191.41
2022-11-29T12:53:27.511Z,98189.06
2022-11-29T12:56:04.956Z,98189.71
2022-11-29T12:58:32.817Z,98187.59
2022-11-29T13:01:00.785Z,98187.64
2022-11-29T13:03:38.902Z,98190.61
2022-11-29T13:06:25.191Z,98188.61
2022-11-29T13:09:05.357Z,98186.27
2022-11-29T13:11:36.400Z,98183.80
2022-11-29T13:14:34.657Z,98186.08
2022-11-29T13:16:57.107Z,98184.21
2022-11-29T13:19:30.303Z,98178.83
2022-11-29T13:21:58.276Z,98179.42
2022-11-29T13:24:31.671Z,98180.71
2022-11-29T13:27:02.304Z,98185.31
2022-11-29T13:29:30.270Z,98191.28
2022-11-29T13:31:58.645Z,98193.59
2022-11-29T13:34:36.930Z,98197.00
2022-11-29T13:37:15.378Z,98199.58
2022-11-29T13:39:52.392Z,98202.76
2022-11-29T13:42:37.629Z,98205.80
2022-11-29T13:45:24.340Z,98209.52
2022-11-29T13:47:53.852Z,98207.19
2022-11-29T13:50:36.360Z,98209.14
2022-11-29T13:53:15.798Z,98215.02
2022-11-29T13:55:48.580Z,98217.71
2022-11-29T13:58:22.601Z,98219.22
2022-11-29T14:00:51.799Z,98220.13
2022-11-29T14:03:19.713Z,98218.70
2022-11-29T14:05:49.270Z,98223.63
2022-11-29T14:08:23.278Z,98230.77
2022-11-29T14:10:52.364Z,98231.48
2022-11-29T14:13:22.897Z,98237.92
2022-11-29T14:15:55.416Z,98239.94
2022-11-29T14:18:40.746Z,98242.88
2022-11-29T14:21:08.931Z,98244.24
2022-11-29T14:23:36.754Z,98247.80
2022-11-29T14:26:04.661Z,98247.88
2022-11-29T14:28:33.547Z,98249.11
2022-11-29T14:31:02.421Z,98247.65
2022-11-29T14:33:37.589Z,98246.52
2022-11-29T14:36:19.471Z,98245.08
2022-11-29T14:38:47.273Z,98244.70
2022-11-29T14:41:33.433Z,98247.73
2022-11-29T14:44:18.887Z,98248.11
2022-11-29T14:46:48.183Z,98253.49
2022-11-29T14:49:26.632Z,98258.64
2022-11-29T14:52:09.758Z,98259.56
2022-11-29T14:54:54.683Z,98258.06
2022-11-29T14:57:43.479Z,98260.33
2022-11-29T15:00:12.784Z,98259.48
2022-11-29T15:02:53.112Z,98261.52
2022-11-29T15:05:24.691Z,98262.33
2022-11-29T15:08:16.320Z,98262.26
2022-11-29T15:10:51.861Z,98263.95
2022-11-29T15:13:31.924Z,98262.14
2022-11-29T15:16:18.432Z,98267.95
2022-11-29T15:19:05.030Z,98270.04
2022-11-29T15:22:07.379Z,98272.72
2022-11-29T15:24:53.904Z,98276.19
2022-11-29T15:27:22.286Z,98278.02
2022-11-29T15:29:50.668Z,98281.89
2022-11-29T15:32:23.754Z,98281.95
2022-11-29T15:34:53.568Z,98285.42
2022-11-29T15:37:38.839Z,98289.04
2022-11-29T15:40:07.223Z,98292.05
2022-11-29T15:42:39.085Z,98292.59
2022-11-29T15:45:25.412Z,98297.07
2022-11-29T15:47:53.607Z,98298.74
2022-11-29T15:50:32.079Z,98300.11
2022-11-29T15:53:03.528Z,98298.48
2022-11-29T15:55:32.003Z,98300.52
2022-11-29T15:58:05.506Z,98303.02
2022-11-29T16:00:36.954Z,98303.15
2022-11-29T16:03:05.537Z,98302.52
2022-11-29T16:05:35.666Z,98302.49
2022-11-29T16:08:04.635Z,98305.99
2022-11-29T16:10:35.357Z,98307.15
2022-11-29T16:13:26.088Z,98305.90
2022-11-29T16:16:09.452Z,98311.52
2022-11-29T16:18:40.785Z,98313.08
2022-11-29T16:21:21.912Z,98316.16
2022-11-29T16:23:50.182Z,98318.66
2022-11-29T16:26:19.903Z,98320.65
2022-11-29T16:28:49.447Z,98320.26
2022-11-29T16:31:18.919Z,98322.73
2022-11-29T16:33:49.179Z,98325.86
2022-11-29T16:36:20.511Z,98330.08
2022-11-29T16:38:57.130Z,98330.38
2022-11-29T16:41:32.779Z,98335.35
2022-11-29T16:44:03.372Z,98340.52
2022-11-29T16:46:40.140Z,98340.84
2022-11-29T16:49:26.679Z,98345.08
2022-11-29T16:51:54.910Z,98345.52
2022-11-29T16:54:22.890Z,98350.27
2022-11-29T16:56:52.035Z,98352.24
2022-11-29T16:59:27.228Z,98350.95
2022-11-29T17:01:56.432Z,98352.86
2022-11-29T17:04:25.367Z,98354.01
2022-11-29T17:06:57.388Z,98352.52
2022-11-29T17:09:26.815Z,98354.86
2022-11-29T17:11:55.171Z,98357.14
2022-11-29T17:14:23.240Z,98362.58
2022-11-29T17:16:52.276Z,98366.84
2022-11-29T17:19:22.916Z,98366.27
2022-11-29T17:21:51.651Z,98364.19
2022-11-29T17:24:20.644Z,98365.85
2022-11-29T17:26:49.127Z,98371.98
2022-11-29T17:29:18.123Z,98368.63
2022-11-29T17:31:47.019Z,98368.91
2022-11-29T17:34:14.984Z,98372.80
2022-11-29T17:36:42.848Z,98375.48
2022-11-29T17:39:10.825Z,98381.23
2022-11-29T17:41:38.684Z,98383.93
2022-11-29T17:44:06.551Z,98385.93
2022-11-29T17:46:35.988Z,98391.48
2022-11-29T17:49:05.565Z,98394.17
2022-11-29T17:54:22.751Z,98392.50
2022-11-29T17:56:51.180Z,98392.55
2022-11-29T17:59:19.149Z,98393.30
2022-11-29T18:01:47.498Z,98393.52
2022-11-29T18:04:15.544Z,98388.26
2022-11-29T18:06:43.976Z,98390.38
2022-11-29T18:09:11.951Z,98391.12
2022-11-29T18:11:47.417Z,98389.48
2022-11-29T18:14:28.394Z,98392.80
2022-11-29T18:16:56.544Z,98389.61
2022-11-29T18:19:25.551Z,98387.60
2022-11-29T18:21:53.501Z,98391.05
2022-11-29T18:24:21.378Z,98392.44
2022-11-29T18:26:49.347Z,98392.49
2022-11-29T18:29:17.312Z,98393.41
2022-11-29T18:31:46.156Z,98394.50
2022-11-29T18:34:15.202Z,98399.19
2022-11-29T18:36:44.501Z,98397.02
2022-11-29T18:39:14.311Z,98396.03
2022-11-29T18:41:43.417Z,98400.02
2022-11-29T18:44:13.153Z,98399.52
2022-11-29T18:46:43.170Z,98397.33
2022-11-29T18:49:12.332Z,98396.54
2022-11-29T18:51:42.349Z,98393.86
2022-11-29T18:54:10.501Z,98394.40
2022-11-29T18:56:38.795Z,98394.45
2022-11-29T18:59:11.378Z,98395.35
2022-11-29T19:01:43.313Z,98397.77
2022-11-29T19:04:13.868Z,98399.48
2022-11-29T19:06:42.769Z,98395.92
2022-11-29T19:09:14.925Z,98394.91
2022-11-29T19:11:43.712Z,98398.19
2022-11-29T19:14:12.890Z,98403.00
2022-11-29T19:16:42.525Z,98406.63
2022-11-29T19:19:10.905Z,98406.32
2022-11-29T19:21:40.252Z,98412.65
2022-11-29T19:24:14.075Z,98407.70
2022-11-29T19:26:46.327Z,98408.90
2022-11-29T19:29:14.762Z,98409.09
2022-11-29T19:31:43.241Z,98405.17
2022-11-29T19:34:11.209Z,98402.11
2022-11-29T19:36:43.979Z,98406.95
2022-11-29T19:39:14.127Z,98405.27
2022-11-29T19:41:43.830Z,98409.39
2022-11-29T19:44:12.098Z,98406.52
2022-11-29T19:46:41.634Z,98405.66
2022-11-29T19:49:09.986Z,98407.23
2022-11-29T19:51:37.890Z,98404.36
2022-11-29T19:54:06.948Z,98407.30
2022-11-29T19:56:34.810Z,98412.11
2022-11-29T19:59:02.888Z,98413.73
2022-11-29T20:01:39.319Z,98417.52
2022-11-29T20:04:08.551Z,98422.49
2022-11-29T20:06:36.676Z,98420.30
2022-11-29T20:09:04.900Z,98421.49
2022-11-29T20:11:32.974Z,98422.86
2022-11-29T20:14:01.567Z,98422.02
2022-11-29T20:16:30.105Z,98423.36
2022-11-29T20:18:58.658Z,98420.45
2022-11-29T20:21:28.387Z,98421.46
2022-11-29T20:23:57.333Z,98422.33
2022-11-29T20:26:25.295Z,98420.64
2022-11-29T20:28:53.202Z,98417.73
2022-11-29T20:31:23.274Z,98413.98
2022-11-29T20:33:52.614Z,98414.16
2022-11-29T20:36:20.660Z,98413.30
2022-11-29T20:38:53.133Z,98411.09
2022-11-29T20:41:25.094Z,98406.31
2022-11-29T20:43:53.060Z,98407.16
2022-11-29T20:46:21.724Z,98413.16
2022-11-29T20:48:51.062Z,98415.41
2022-11-29T20:51:19.938Z,98420.03
2022-11-29T20:53:48.733Z,98418.50
2022-11-29T20:56:16.802Z,98416.81
2022-11-29T20:58:44.710Z,98416.67
2022-11-29T21:01:12.681Z,98416.52
2022-11-29T21:03:40.773Z,98422.16
2022-11-29T21:06:08.789Z,98425.42
2022-11-29T21:08:37.056Z,98429.18
2022-11-29T21:11:07.277Z,98432.95
2022-11-29T21:13:35.766Z,98430.40
2022-11-29T21:16:03.981Z,98431.08
2022-11-29T21:18:32.387Z,98430.75
2022-11-29T21:21:10.110Z,98428.71
2022-11-29T21:23:52.462Z,98428.89
2022-11-29T21:26:27.189Z,98430.60
2022-11-29T21:29:05.577Z,98430.44
2022-11-29T21:31:33.775Z,98428.55
2022-11-29T21:34:01.914Z,98426.34
2022-11-29T21:36:30.187Z,98425.48
2022-11-29T21:39:03.659Z,98426.34
2022-11-29T21:41:33.405Z,98428.58
2022-11-29T21:44:08.978Z,98434.56
2022-11-29T21:46:37.003Z,98433.20
2022-11-29T21:49:05.088Z,98432.71
2022-11-29T21:51:33.577Z,98432.36
2022-11-29T21:54:02.266Z,98436.47
2022-11-29T21:56:30.520Z,98435.44
2022-11-29T21:58:58.395Z,98435.28
2022-11-29T22:01:27.660Z,98434.09
2022-11-29T22:03:56.180Z,98433.77
2022-11-29T22:06:28.045Z,98435.14
2022-11-29T22:08:56.319Z,98429.84
2022-11-29T22:11:36.788Z,98428.65
2022-11-29T22:14:18.509Z,98428.81
2022-11-29T22:16:57.398Z,98428.48
2022-11-29T22:19:26.804Z,98425.23
2022-11-29T22:21:57.944Z,98424.38
2022-11-29T22:24:27.053Z,98427.30
2022-11-29T22:26:55.852Z,98427.98
2022-11-29T22:29:24.514Z,98422.86
2022-11-29T22:31:53.302Z,98423.54
2022-11-29T22:34:21.994Z,98422.19
2022-11-29T22:36:49.961Z,98428.49
2022-11-29T22:39:17.827Z,98423.36
2022-11-29T22:41:52.313Z,98423.55
2022-11-29T22:44:22.880Z,98427.64
2022-11-29T22:46:51.008Z,98426.29
2022-11-29T22:49:19.027Z,98421.16
2022-11-29T22:51:46.968Z,98418.95
2022-11-29T22:54:18.143Z,98421.51
2022-11-29T22:56:46.002Z,98423.71
2022-11-29T22:59:14.296Z,98419.11
2022-11-29T23:01:42.578Z,98417.23
2022-11-29T23:04:11.758Z,98417.57
2022-11-29T23:06:44.142Z,98413.98
2022-11-29T23:09:16.933Z,98408.70
2022-11-29T23:11:45.906Z,98404.10
2022-11-29T23:14:13.979Z,98401.38
2022-11-29T23:16:43.045Z,98403.26
2022-11-29T23:19:11.481Z,98402.91
2022-11-29T23:21:40.136Z,98403.08
2022-11-29T23:24:08.207Z,98398.48
2022-11-29T23:26:37.611Z,98401.03
2022-11-29T23:29:25.756Z,98404.45
2022-11-29T23:31:53.650Z,98396.95
2022-11-29T23:34:21.693Z,98396.27
2022-11-29T23:36:52.887Z,98393.86
2022-11-29T23:39:21.317Z,98392.50
2022-11-29T23:41:49.184Z,98391.83
2022-11-29T23:44:17.159Z,98389.09
2022-11-29T23:46:45.326Z,98385.84
2022-11-29T23:49:13.306Z,98385.50
2022-11-29T23:51:41.164Z,98389.61
2022-11-29T23:54:09.240Z,98391.65
2022-11-29T23:56:37.209Z,98390.80
2022-11-29T23:59:05.123Z,98392.00
